createdAt,value
2022-09-06T00:01:17.197Z,22.63
2022-09-06T00:03:45.755Z,7.60
2022-09-06T00:06:18.117Z,7.57
2022-09-06T00:08:47.997Z,5.93
2022-09-06T00:11:17.652Z,8.20
2022-09-06T00:13:46.134Z,8.30
2022-09-06T00:16:21.272Z,10.30
2022-09-06T00:18:49.882Z,11.07
2022-09-06T00:21:29.701Z,14.18
2022-09-06T00:23:57.719Z,6.47
2022-09-06T00:26:25.424Z,9.82
2022-09-06T00:28:53.040Z,7.72
2022-09-06T00:31:26.197Z,11.52
2022-09-06T00:33:54.989Z,12.98
2022-09-06T00:36:24.082Z,7.90
2022-09-06T00:38:51.806Z,5.43
2022-09-06T00:41:19.792Z,10.38
2022-09-06T00:43:47.836Z,6.22
2022-09-06T00:46:24.231Z,8.20
2022-09-06T00:49:09.366Z,6.68
2022-09-06T00:51:37.630Z,14.35
2022-09-06T00:54:08.237Z,6.67
2022-09-06T00:56:42.241Z,7.60
2022-09-06T00:59:10.372Z,8.80
2022-09-06T01:01:38.076Z,13.05
2022-09-06T01:04:06.194Z,10.55
2022-09-06T01:07:05.344Z,11.38
2022-09-06T01:10:23.020Z,9.88
2022-09-06T01:13:42.284Z,8.15
2022-09-06T01:19:25.107Z,12.07
2022-09-06T01:22:18.758Z,7.65
2022-09-06T01:25:35.533Z,9.35
2022-09-06T01:28:07.313Z,8.68
2022-09-06T01:30:41.197Z,9.35
2022-09-06T01:33:46.009Z,9.30
2022-09-06T01:36:24.324Z,10.93
2022-09-06T01:38:52.429Z,8.40
2022-09-06T01:41:20.321Z,10.75
2022-09-06T01:43:50.232Z,9.55
2022-09-06T01:46:35.765Z,15.13
2022-09-06T01:49:32.410Z,11.13
2022-09-06T01:52:27.410Z,9.55
2022-09-06T01:55:13.427Z,11.50
2022-09-06T01:58:08.317Z,13.45
2022-09-06T02:00:55.510Z,16.00
2022-09-06T02:03:38.429Z,11.63
2022-09-06T02:06:14.444Z,11.90
2022-09-06T02:08:49.309Z,11.95
2022-09-06T02:11:17.837Z,13.30
2022-09-06T02:13:55.703Z,14.80
2022-09-06T02:16:27.361Z,13.25
2022-09-06T02:19:18.348Z,11.23
2022-09-06T02:21:47.533Z,9.77
2022-09-06T02:24:30.069Z,18.52
2022-09-06T02:26:58.204Z,11.45
2022-09-06T02:29:25.864Z,12.68
2022-09-06T02:32:03.973Z,17.38
2022-09-06T02:34:31.996Z,13.70
2022-09-06T02:37:00.974Z,21.60
2022-09-06T02:39:28.655Z,15.27
2022-09-06T02:41:56.797Z,20.83
2022-09-06T02:44:24.552Z,18.77
2022-09-06T02:46:56.819Z,24.40
2022-09-06T02:49:25.359Z,19.92
2022-09-06T02:51:52.892Z,17.50
2022-09-06T02:54:20.426Z,14.75
2022-09-06T02:56:52.114Z,15.40
2022-09-06T02:59:20.097Z,14.98
2022-09-06T03:01:47.672Z,21.65
2022-09-06T03:04:15.574Z,28.83
2022-09-06T03:06:43.085Z,19.58
2022-09-06T03:09:10.669Z,18.25
2022-09-06T03:11:38.589Z,18.17
2022-09-06T03:14:06.182Z,18.10
2022-09-06T03:16:34.825Z,21.35
2022-09-06T03:19:02.951Z,18.67
2022-09-06T03:21:30.618Z,19.13
2022-09-06T03:23:59.386Z,27.60
2022-09-06T03:26:28.253Z,24.45
2022-09-06T03:28:55.780Z,19.15
2022-09-06T03:31:23.367Z,18.02
2022-09-06T03:33:51.144Z,21.13
2022-09-06T03:36:18.697Z,20.48
2022-09-06T03:39:05.791Z,20.75
2022-09-06T03:41:33.426Z,25.02
2022-09-06T03:44:00.975Z,26.17
2022-09-06T03:46:30.808Z,23.75
2022-09-06T03:48:59.534Z,18.58
2022-09-06T03:51:27.170Z,21.67
2022-09-06T03:53:55.650Z,19.15
2022-09-06T03:56:23.202Z,22.35
2022-09-06T03:58:50.755Z,23.48
2022-09-06T04:01:18.649Z,22.35
2022-09-06T04:03:46.507Z,20.08
2022-09-06T04:06:14.137Z,20.95
2022-09-06T04:08:41.908Z,17.95
2022-09-06T04:11:09.667Z,20.80
2022-09-06T04:13:38.327Z,26.52
2022-09-06T04:16:06.765Z,21.60
2022-09-06T04:18:34.467Z,20.52
2022-09-06T04:21:02.867Z,21.75
2022-09-06T04:23:31.259Z,25.77
2022-09-06T04:26:00.049Z,19.60
2022-09-06T04:28:28.005Z,19.15
2022-09-06T04:31:04.046Z,23.63
2022-09-06T04:33:34.401Z,21.38
2022-09-06T04:36:05.654Z,20.90
2022-09-06T04:38:42.140Z,19.77
2022-09-06T04:41:14.705Z,26.63
2022-09-06T04:43:43.630Z,24.30
2022-09-06T04:46:30.074Z,18.02
2022-09-06T04:48:58.340Z,21.60
2022-09-06T04:51:26.509Z,19.50
2022-09-06T04:53:54.577Z,14.82
2022-09-06T04:56:25.861Z,16.50
2022-09-06T04:58:55.481Z,15.00
2022-09-06T05:01:23.309Z,14.68
2022-09-06T05:03:53.940Z,29.98
2022-09-06T05:06:25.780Z,27.23
2022-09-06T05:08:53.445Z,23.33
2022-09-06T05:11:21.136Z,24.20
2022-09-06T05:13:50.316Z,27.35
2022-09-06T05:16:20.558Z,31.38
2022-09-06T05:18:48.388Z,25.10
2022-09-06T05:21:16.919Z,32.70
2022-09-06T05:23:45.026Z,40.80
2022-09-06T05:26:12.626Z,34.90
2022-09-06T05:28:40.515Z,51.38
2022-09-06T05:31:22.626Z,40.70
2022-09-06T05:33:52.195Z,34.03
2022-09-06T05:38:47.615Z,31.70
2022-09-06T05:41:15.441Z,39.65
2022-09-06T05:43:43.017Z,35.33
2022-09-06T05:46:11.484Z,35.15
2022-09-06T05:48:39.624Z,28.50
2022-09-06T05:51:13.150Z,28.60
2022-09-06T05:53:43.907Z,31.27
2022-09-06T05:56:13.917Z,31.75
2022-09-06T05:58:41.785Z,34.35
2022-09-06T06:01:23.316Z,32.47
2022-09-06T06:04:03.047Z,31.23
2022-09-06T06:06:33.629Z,33.92
2022-09-06T06:09:01.916Z,35.72
2022-09-06T06:11:31.075Z,35.75
2022-09-06T06:16:26.943Z,28.90
2022-09-06T06:18:54.989Z,31.10
2022-09-06T06:21:32.109Z,37.72
2022-09-06T06:24:02.977Z,29.63
2022-09-06T06:26:35.555Z,30.92
2022-09-06T06:29:05.791Z,33.92
2022-09-06T06:31:34.404Z,38.65
2022-09-06T06:34:04.048Z,31.25
2022-09-06T06:36:35.345Z,37.88
2022-09-06T06:39:07.157Z,38.78
2022-09-06T06:41:34.999Z,37.22
2022-09-06T06:44:05.227Z,31.95
2022-09-06T06:46:37.498Z,33.53
2022-09-06T06:49:05.706Z,34.22
2022-09-06T06:51:39.321Z,32.25
2022-09-06T06:54:07.238Z,25.50
2022-09-06T06:56:44.867Z,36.60
2022-09-06T06:59:13.896Z,39.70
2022-09-06T07:01:41.646Z,29.85
2022-09-06T07:04:10.590Z,27.48
2022-09-06T07:12:28.521Z,35.78
2022-09-06T07:14:56.013Z,26.38
2022-09-06T07:17:23.741Z,29.35
2022-09-06T07:22:40.319Z,26.05
2022-09-06T07:25:14.389Z,23.08
2022-09-06T07:30:20.149Z,27.55
2022-09-06T07:35:16.091Z,24.98
2022-09-06T07:37:43.841Z,26.52
2022-09-06T07:40:11.859Z,28.35
2022-09-06T07:42:39.686Z,31.65
2022-09-06T07:45:08.411Z,20.57
2022-09-06T07:53:15.578Z,25.83
2022-09-06T07:55:45.500Z,21.83
2022-09-06T07:58:13.059Z,22.90
2022-09-06T08:00:41.456Z,24.45
2022-09-06T08:03:10.357Z,23.33
2022-09-06T08:11:14.734Z,16.00
2022-09-06T08:13:42.932Z,17.00
2022-09-06T08:16:12.554Z,20.65
2022-09-06T08:18:40.234Z,16.90
2022-09-06T08:21:16.315Z,10.27
2022-09-06T08:24:06.145Z,12.43
2022-09-06T08:26:40.523Z,9.07
2022-09-06T08:29:10.116Z,9.70
2022-09-06T08:31:42.571Z,9.73
2022-09-06T08:34:12.818Z,16.77
2022-09-06T08:36:41.757Z,8.35
2022-09-06T08:39:10.543Z,8.43
2022-09-06T08:42:03.716Z,7.72
2022-09-06T08:44:56.406Z,7.55
2022-09-06T08:47:25.063Z,8.15
2022-09-06T08:50:02.707Z,7.20
2022-09-06T08:53:17.326Z,10.32
2022-09-06T08:56:13.326Z,11.23
2022-09-06T08:59:13.600Z,7.82
2022-09-06T09:02:03.431Z,8.13
2022-09-06T09:04:32.333Z,8.57
2022-09-06T09:07:29.428Z,5.93
2022-09-06T09:09:59.554Z,8.43
2022-09-06T09:12:31.471Z,5.93
2022-09-06T09:15:09.051Z,6.15
2022-09-06T09:17:37.620Z,5.47
2022-09-06T09:20:08.410Z,7.75
2022-09-06T09:22:36.350Z,4.45
2022-09-06T09:25:06.521Z,3.72
2022-09-06T09:27:34.527Z,4.45
2022-09-06T09:32:55.541Z,5.78
2022-09-06T09:35:42.269Z,3.58
2022-09-06T09:38:21.391Z,3.70
2022-09-06T09:43:40.037Z,3.45
2022-09-06T09:46:23.547Z,3.53
2022-09-06T09:49:22.608Z,2.60
2022-09-06T09:52:13.966Z,3.35
2022-09-06T09:54:46.726Z,7.97
2022-09-06T09:57:18.995Z,3.33
2022-09-06T10:00:01.132Z,2.17
2022-09-06T10:02:41.549Z,2.97
2022-09-06T10:05:12.900Z,3.63
2022-09-06T10:07:59.482Z,2.95
2022-09-06T10:10:34.559Z,2.92
2022-09-06T10:13:29.659Z,4.65
2022-09-06T10:16:00.652Z,3.47
2022-09-06T10:18:44.540Z,2.90
2022-09-06T10:21:19.831Z,6.00
2022-09-06T10:27:01.144Z,4.22
2022-09-06T10:29:56.939Z,3.60
2022-09-06T10:32:55.671Z,3.60
2022-09-06T10:35:35.318Z,4.72
2022-09-06T10:38:36.859Z,3.75
2022-09-06T10:41:33.257Z,4.80
2022-09-06T10:44:50.429Z,3.80
2022-09-06T10:47:19.279Z,4.13
2022-09-06T10:49:57.936Z,4.45
2022-09-06T10:52:42.036Z,4.70
2022-09-06T10:55:16.483Z,3.47
2022-09-06T11:00:47.467Z,4.72
2022-09-06T11:03:56.708Z,7.38
2022-09-06T11:06:35.636Z,4.90
2022-09-06T11:09:25.696Z,6.07
2022-09-06T11:12:48.792Z,4.10
2022-09-06T11:15:18.354Z,3.70
2022-09-06T11:18:15.354Z,7.13
2022-09-06T11:20:57.432Z,4.40
2022-09-06T11:23:28.142Z,3.40
2022-09-06T11:26:34.435Z,4.90
2022-09-06T11:29:26.732Z,4.00
2022-09-06T11:32:19.554Z,4.18
2022-09-06T11:34:59.211Z,4.22
2022-09-06T11:37:34.862Z,4.00
2022-09-06T11:40:27.637Z,4.45
2022-09-06T11:42:56.004Z,4.10
2022-09-06T11:45:50.349Z,4.15
2022-09-06T11:48:23.780Z,3.95
2022-09-06T11:50:54.572Z,4.85
2022-09-06T11:53:29.153Z,4.22
2022-09-06T11:56:03.252Z,3.88
2022-09-06T11:58:53.977Z,4.22
2022-09-06T12:01:21.615Z,5.75
2022-09-06T12:04:05.917Z,4.60
2022-09-06T12:06:43.985Z,3.53
2022-09-06T12:09:28.642Z,3.33
2022-09-06T12:11:57.762Z,4.85
2022-09-06T12:17:08.835Z,3.65
2022-09-06T12:22:32.802Z,3.33
2022-09-06T12:25:36.012Z,3.13
2022-09-06T12:28:07.132Z,2.80
2022-09-06T12:30:48.010Z,2.97
2022-09-06T12:33:28.773Z,6.53
2022-09-06T12:36:31.226Z,3.00
2022-09-06T12:39:09.361Z,4.63
2022-09-06T12:42:00.515Z,9.73
2022-09-06T12:44:45.472Z,3.15
2022-09-06T12:47:34.416Z,3.42
2022-09-06T12:50:24.129Z,6.80
2022-09-06T12:52:51.632Z,3.65
2022-09-06T12:55:27.169Z,2.92
2022-09-06T12:57:58.131Z,3.33
2022-09-06T13:00:42.645Z,3.00
2022-09-06T13:03:37.478Z,4.13
2022-09-06T13:06:07.092Z,2.60
2022-09-06T13:08:47.934Z,3.00
2022-09-06T13:11:24.386Z,3.88
2022-09-06T13:13:54.708Z,3.67
2022-09-06T13:16:35.513Z,3.25
2022-09-06T13:19:35.448Z,3.33
2022-09-06T13:22:10.957Z,4.43
2022-09-06T13:24:47.797Z,2.90
2022-09-06T13:27:36.784Z,2.58
2022-09-06T13:30:10.208Z,3.55
2022-09-06T13:32:47.636Z,2.78
2022-09-06T13:35:24.801Z,3.20
2022-09-06T13:37:52.712Z,3.13
2022-09-06T13:41:06.954Z,3.60
2022-09-06T13:43:33.699Z,2.75
2022-09-06T13:46:07.461Z,3.28
2022-09-06T13:48:36.011Z,3.20
2022-09-06T13:51:06.794Z,2.73
2022-09-06T13:53:35.531Z,4.85
2022-09-06T13:56:03.931Z,3.05
2022-09-06T13:58:31.513Z,2.53
2022-09-06T14:00:59.238Z,7.30
2022-09-06T14:03:31.252Z,3.60
2022-09-06T14:06:02.915Z,2.15
2022-09-06T14:08:55.792Z,2.75
2022-09-06T14:11:19.881Z,3.47
2022-09-06T14:13:48.016Z,9.50
2022-09-06T14:16:15.675Z,2.17
2022-09-06T14:18:43.699Z,2.33
2022-09-06T14:21:11.579Z,5.25
2022-09-06T14:23:39.399Z,3.10
2022-09-06T14:26:06.929Z,3.97
2022-09-06T14:28:34.861Z,3.10
2022-09-06T14:31:18.981Z,4.63
2022-09-06T14:33:47.216Z,3.05
2022-09-06T14:36:19.125Z,4.63
2022-09-06T14:38:48.347Z,4.30
2022-09-06T14:41:17.847Z,6.70
2022-09-06T14:43:51.065Z,3.42
2022-09-06T14:46:22.108Z,12.20
2022-09-06T14:48:56.896Z,4.80
2022-09-06T14:51:25.007Z,6.93
2022-09-06T14:54:20.186Z,3.75
2022-09-06T14:56:48.496Z,5.43
2022-09-06T14:59:16.185Z,3.17
2022-09-06T15:01:43.905Z,3.25
2022-09-06T15:04:12.354Z,5.82
2022-09-06T15:06:44.884Z,3.83
2022-09-06T15:09:16.486Z,6.80
2022-09-06T15:11:48.552Z,3.35
2022-09-06T15:14:27.435Z,3.15
2022-09-06T15:16:59.519Z,3.85
2022-09-06T15:19:29.770Z,3.53
2022-09-06T15:21:57.945Z,4.18
2022-09-06T15:24:26.080Z,3.20
2022-09-06T15:26:54.382Z,3.67
2022-09-06T15:29:22.633Z,4.40
2022-09-06T15:31:50.970Z,4.10
2022-09-06T15:34:26.426Z,3.20
2022-09-06T15:36:54.663Z,4.13
2022-09-06T15:39:22.770Z,6.28
2022-09-06T15:41:51.780Z,4.13
2022-09-06T15:44:21.684Z,6.05
2022-09-06T15:46:59.882Z,3.50
2022-09-06T15:49:32.902Z,3.67
2022-09-06T15:52:02.838Z,3.70
2022-09-06T15:54:49.203Z,8.60
2022-09-06T15:57:17.936Z,9.13
2022-09-06T16:02:14.606Z,6.68
2022-09-06T16:04:42.456Z,10.93
2022-09-06T16:07:10.131Z,9.80
2022-09-06T16:09:37.878Z,9.37
2022-09-06T16:12:06.445Z,7.07
2022-09-06T16:14:34.948Z,17.75
2022-09-06T16:17:02.647Z,10.05
2022-09-06T16:19:30.538Z,27.52
2022-09-06T16:21:59.040Z,16.85
2022-09-06T16:24:27.028Z,21.60
2022-09-06T16:27:00.147Z,8.23
2022-09-06T16:29:27.727Z,11.05
2022-09-06T16:31:59.856Z,8.98
2022-09-06T16:34:27.915Z,11.25
2022-09-06T16:36:57.021Z,9.75
2022-09-06T16:39:25.303Z,13.93
2022-09-06T16:41:53.261Z,7.78
2022-09-06T16:44:20.925Z,8.40
2022-09-06T16:46:50.368Z,9.43
2022-09-06T16:49:19.417Z,8.60
2022-09-06T16:51:48.702Z,5.03
2022-09-06T16:54:18.243Z,9.80
2022-09-06T16:56:46.300Z,12.85
2022-09-06T16:59:17.429Z,10.35
2022-09-06T17:01:46.187Z,9.93
2022-09-06T17:04:15.336Z,8.93
2022-09-06T17:06:44.668Z,13.20
2022-09-06T17:09:16.269Z,15.75
2022-09-06T17:11:44.151Z,13.57
2022-09-06T17:14:11.935Z,9.07
2022-09-06T17:16:58.635Z,9.23
2022-09-06T17:19:26.755Z,16.58
2022-09-06T17:21:54.483Z,13.60
2022-09-06T17:24:22.671Z,10.57
2022-09-06T17:26:50.484Z,17.50
2022-09-06T17:29:18.153Z,16.20
2022-09-06T17:31:45.805Z,11.90
2022-09-06T17:34:13.737Z,13.75
2022-09-06T17:36:41.451Z,22.02
2022-09-06T17:39:14.347Z,13.00
2022-09-06T17:41:47.914Z,14.55
2022-09-06T17:44:19.777Z,11.15
2022-09-06T17:47:08.954Z,14.77
2022-09-06T17:49:36.825Z,21.05
2022-09-06T17:52:05.049Z,12.20
2022-09-06T17:54:32.727Z,12.10
2022-09-06T17:57:00.276Z,10.48
2022-09-06T17:59:32.793Z,10.05
2022-09-06T18:02:02.478Z,13.38
2022-09-06T18:04:30.489Z,20.48
2022-09-06T18:06:58.481Z,14.25
2022-09-06T18:09:26.034Z,12.07
2022-09-06T18:11:53.884Z,13.82
2022-09-06T18:14:21.515Z,14.00
2022-09-06T18:16:51.875Z,9.07
2022-09-06T18:19:21.108Z,10.52
2022-09-06T18:21:49.064Z,15.27
2022-09-06T18:24:17.080Z,13.60
2022-09-06T18:26:44.991Z,9.00
2022-09-06T18:29:15.031Z,9.15
2022-09-06T18:31:43.613Z,8.82
2022-09-06T18:34:12.460Z,11.98
2022-09-06T18:36:40.598Z,11.52
2022-09-06T18:39:08.354Z,9.73
2022-09-06T18:41:54.841Z,13.82
2022-09-06T18:44:22.561Z,9.23
2022-09-06T18:46:50.422Z,8.98
2022-09-06T18:49:18.612Z,9.23
2022-09-06T18:51:46.507Z,9.00
2022-09-06T18:54:14.908Z,9.70
2022-09-06T18:56:44.823Z,8.37
2022-09-06T18:59:13.908Z,8.90
2022-09-06T19:01:43.124Z,15.60
2022-09-06T19:04:12.151Z,16.42
2022-09-06T19:06:43.120Z,8.23
2022-09-06T19:09:15.976Z,9.18
2022-09-06T19:11:47.041Z,9.35
2022-09-06T19:14:15.346Z,8.90
2022-09-06T19:16:45.209Z,13.88
2022-09-06T19:19:13.488Z,7.63
2022-09-06T19:21:42.526Z,8.50
2022-09-06T19:26:43.574Z,10.38
2022-09-06T19:29:17.800Z,8.20
2022-09-06T19:31:47.415Z,8.88
2022-09-06T19:34:16.204Z,17.27
2022-09-06T19:36:45.037Z,9.10
2022-09-06T19:39:16.369Z,7.97
2022-09-06T19:41:46.926Z,7.82
2022-09-06T19:44:16.806Z,9.07
2022-09-06T19:46:47.165Z,6.35
2022-09-06T19:49:17.789Z,6.93
2022-09-06T19:51:48.778Z,5.45
2022-09-06T19:54:17.439Z,5.97
2022-09-06T19:56:45.870Z,6.90
2022-09-06T19:59:15.890Z,6.38
2022-09-06T20:01:46.205Z,6.43
2022-09-06T20:04:15.644Z,7.53
2022-09-06T20:06:43.643Z,6.65
2022-09-06T20:09:12.076Z,6.75
2022-09-06T20:11:41.427Z,7.35
2022-09-06T20:14:11.594Z,10.27
2022-09-06T20:16:42.204Z,10.02
2022-09-06T20:19:12.556Z,12.63
2022-09-06T20:21:40.533Z,6.93
2022-09-06T20:24:08.499Z,6.22
2022-09-06T20:26:36.627Z,9.80
2022-09-06T20:29:05.258Z,6.47
2022-09-06T20:31:35.429Z,10.10
2022-09-06T20:34:07.485Z,7.82
2022-09-06T20:36:35.682Z,9.27
2022-09-06T20:39:04.472Z,6.07
2022-09-06T20:44:00.838Z,5.82
2022-09-06T20:46:32.312Z,7.30
2022-09-06T20:49:04.581Z,8.93
2022-09-06T20:51:36.314Z,6.43
2022-09-06T20:54:05.924Z,15.70
2022-09-06T20:56:42.159Z,9.23
2022-09-06T20:59:12.911Z,8.23
2022-09-06T21:01:43.944Z,7.82
2022-09-06T21:04:14.456Z,8.52
2022-09-06T21:06:42.397Z,6.88
2022-09-06T21:09:14.131Z,6.57
2022-09-06T21:11:43.355Z,6.85
2022-09-06T21:14:13.467Z,9.75
2022-09-06T21:16:43.943Z,10.10
2022-09-06T21:19:14.232Z,6.97
2022-09-06T21:21:43.998Z,7.13
2022-09-06T21:24:12.454Z,10.60
2022-09-06T21:26:44.999Z,6.10
2022-09-06T21:29:25.264Z,7.13
2022-09-06T21:31:59.597Z,6.15
2022-09-06T21:34:27.227Z,10.43
2022-09-06T21:37:00.926Z,5.93
2022-09-06T21:39:34.138Z,7.55
2022-09-06T21:42:07.533Z,6.10
2022-09-06T21:44:41.059Z,15.18
2022-09-06T21:47:17.534Z,6.20
2022-09-06T21:49:47.768Z,8.82
2022-09-06T21:52:17.391Z,6.22
2022-09-06T21:54:45.801Z,6.38
2022-09-06T21:57:14.082Z,6.20
2022-09-06T21:59:42.365Z,6.28
2022-09-06T22:02:09.972Z,6.88
2022-09-06T22:04:37.947Z,6.88
2022-09-06T22:07:05.500Z,9.38
2022-09-06T22:09:33.102Z,8.05
2022-09-06T22:12:00.846Z,6.05
2022-09-06T22:14:28.950Z,5.82
2022-09-06T22:16:57.005Z,6.20
2022-09-06T22:19:24.952Z,6.57
2022-09-06T22:21:54.446Z,9.73
2022-09-06T22:24:21.989Z,5.90
2022-09-06T22:26:49.754Z,5.43
2022-09-06T22:29:17.332Z,8.82
2022-09-06T22:31:44.997Z,6.13
2022-09-06T22:34:13.056Z,5.45
2022-09-06T22:36:40.631Z,6.85
2022-09-06T22:39:09.626Z,6.13
2022-09-06T22:41:40.679Z,5.93
2022-09-06T22:44:08.367Z,5.55
2022-09-06T22:46:37.027Z,5.70
2022-09-06T22:49:05.483Z,7.00
2022-09-06T22:51:34.384Z,10.00
2022-09-06T22:54:02.120Z,6.07
2022-09-06T22:56:29.951Z,5.93
2022-09-06T22:59:00.320Z,5.95
2022-09-06T23:01:28.686Z,13.57
2022-09-06T23:03:56.592Z,6.03
2022-09-06T23:06:24.525Z,5.18
2022-09-06T23:08:52.127Z,5.90
2022-09-06T23:11:20.184Z,7.40
2022-09-06T23:13:47.903Z,5.80
2022-09-06T23:16:19.534Z,8.13
2022-09-06T23:18:48.371Z,11.02
2022-09-06T23:21:22.332Z,11.32
2022-09-06T23:23:52.681Z,10.05
2022-09-06T23:26:23.763Z,7.13
2022-09-06T23:28:56.543Z,8.60
2022-09-06T23:31:27.138Z,6.82
2022-09-06T23:33:58.080Z,5.53
2022-09-06T23:36:26.641Z,6.05
2022-09-06T23:38:54.297Z,6.25
2022-09-06T23:41:22.264Z,5.90
2022-09-06T23:43:50.040Z,7.05
2022-09-06T23:46:18.279Z,6.30
2022-09-06T23:48:46.482Z,5.70
2022-09-06T23:51:14.185Z,5.70
2022-09-06T23:53:42.354Z,5.00
2022-09-06T23:56:10.663Z,5.55
2022-09-06T23:58:39.382Z,10.52
